^^

Nearby METAR Reports

 

KFNL - Ft Collins/Lovel, Colorado, USA
Distance from station: N 2mi, 3km
Updated: 05/22/2022 7:56 pm
Mostly cloudy
Mostly cloudy
 Wind from SE
Wind: SE 15 mph , 24 km/h
Temperature: 55°F , 13°C
Dew Point: 37°F , 3°C
Humidity: 51%
Barometer: 1019 hPa
Clouds: Mostly cloudy
Visibility: 10 miles , 16 km
Cloud details: Few Clouds 6000 ft
Partly cloudy 8500 ft
Mostly cloudy 12000 ft
2022/05/23 01:56 KFNL 230156Z 13013KT 10SM FEW060 SCT085 BKN120 13/03 A3009 RMK AO2 SLP171 T01280028
KLMO - Longmont/Vbrand, Colorado, USA
Distance from station: SSW 19mi, 31km
Updated: 05/22/2022 7:55 pm
Mostly cloudy
Mostly cloudy
 Wind from N
Wind: N 3 mph , 6 km/h
Temperature: 57°F , 14°C
Dew Point: 34°F , 1°C
Humidity: 41%
Barometer: 1019 hPa
Clouds: Mostly cloudy
Visibility: 10 miles , 16 km
Cloud details: Mostly cloudy 9000 ft
2022/05/23 01:55 KLMO 230155Z AUTO 36003KT 10SM BKN090 14/01 A3009 RMK AO2 T01410013
 
KGXY - Greeley/Weld, Colorado, USA
Distance from station: E 21mi, 34km
Updated: 05/22/2022 7:56 pm
Clear
Clear
 Wind from SE
Wind: SE 13 mph , 20 km/h
Temperature: 54°F , 12°C
Dew Point: 36°F , 2°C
Humidity: 51%
Barometer: 1019.6 hPa
Clouds: Clear
Visibility: 10 miles , 16 km
2022/05/23 01:56 KGXY 230156Z 13011KT 10SM CLR 12/02 A3011 RMK AO2 SLP192 T01170022 $
KEIK - Erie Muni, Colorado, USA
Distance from station: S 28mi, 45km
Updated: 05/22/2022 7:55 pm
Clear
Clear
 Wind from SSE
Wind: SSE 6 mph , 9 km/h
Temperature: 55°F , 13°C
Dew Point: 36°F , 2°C
Humidity: 47%
Barometer: 1018.6 hPa
Clouds: Clear
Visibility: 10 miles , 16 km
2022/05/23 01:55 KEIK 230155Z AUTO 16005KT 10SM CLR 13/02 A3008 RMK AO2 T01310016 PWINO
 
KBDU - Boulder Muni, Colorado, USA
Distance from station: SSW 29mi, 47km
Updated: 05/22/2022 7:55 pm
Partly cloudy
Partly cloudy
 Wind from NE
Wind: NE 3 mph , 6 km/h
Temperature: 54°F , 12°C
Dew Point: 34°F , 1°C
Humidity: 47%
Barometer: 1018.3 hPa
Clouds: Partly cloudy
Visibility: 10 miles , 16 km
Cloud details: Partly cloudy 5500 ft
Partly cloudy 10000 ft
2022/05/23 01:55 KBDU 230155Z AUTO 05003KT 10SM SCT055 SCT100 12/01 A3007 RMK AO2
KBJC - Broomfield/Jeffc, Colorado, USA
Distance from station: S 36mi, 58km
Updated: 05/22/2022 7:45 pm
Mostly cloudy
Mostly cloudy
 Wind from SE
Wind: SE 8 mph , 13 km/h
Temperature: 54°F , 12°C
Dew Point: 36°F , 2°C
Humidity: 51%
Barometer: 1019.3 hPa
Clouds: Mostly cloudy
Visibility: 10 miles , 16 km
Cloud details: Partly cloudy 10000 ft
Mostly cloudy 12000 ft
2022/05/23 01:45 KBJC 230145Z 13007KT 10SM SCT100 BKN120 12/02 A3010
 
KDEN - Denver (dia), Colorado, USA
Distance from station: SSE 44mi, 70km
Updated: 05/22/2022 7:53 pm
Mostly cloudy
Mostly cloudy
 Wind from S
Wind: S 13 mph , 20 km/h
Temperature: 50°F , 10°C
Wind Chill: 45°F , 7°C
Dew Point: 37°F , 3°C
Humidity: 62%
Barometer: 1019 hPa
Clouds: Mostly cloudy
Visibility: 10 miles , 16 km
Cloud details: Few Clouds 7000 ft
Mostly cloudy 12000 ft
Mostly cloudy 20000 ft
2022/05/23 01:53 KDEN 230153Z 17011KT 10SM FEW070 BKN120 BKN200 10/03 A3009 RMK AO2 SLP162 T01000033 $
KFEW - Warren Air Base, Wyoming, USA
Distance from station: N 50mi, 80km
Updated: 05/22/2022 6:58 pm
Overcast
Overcast
 Wind from SSE
Wind: SSE 15 mph , 24 km/h
Temperature: 52°F , 11°C
Dew Point: 32°F , 0°C
Humidity: 47%
Barometer: 1018.6 hPa
Clouds: Overcast
Visibility: 10 miles , 16 km
Cloud details: Few Clouds 4500 ft
Mostly cloudy 6500 ft
Overcast 8000 ft
2022/05/23 00:58 KFEW 230058Z AUTO 16013KT 10SM FEW045 BKN065 OVC080 11/M00 A3008 RMK AO2 SLP184 T01081001 $
 
KBKF - Buckley Angb/Den, Colorado, USA
Distance from station: SSE 50mi, 81km
Updated: 05/22/2022 6:58 pm
Mostly cloudy
Mostly cloudy
 Wind from S
Wind: S 18 mph , 30 km/h
Temperature: 50°F , 10°C
Wind Chill: 44°F , 7°C
Dew Point: 36°F , 2°C
Humidity: 58%
Barometer: 1018.6 hPa
Clouds: Mostly cloudy
Visibility: 10 miles , 16 km
Cloud details: Few Clouds 4000 ft
Mostly cloudy 11000 ft
Mostly cloudy 20000 ft
2022/05/23 00:58 KBKF 230058Z 18016KT 10SM FEW040 BKN110 BKN200 10/02 A3008 RMK AO2A SLP161 T00970021